Airfield :
LOGIN :

Register | Disclaimer

   EN    FR    IT 

 










Legend :    VFR   Marginal VFR   IFR   Intensive IFR   Very Intensive IFR
Visi :
Ceiling :
>= 8 km
>= 3000ft
5 to 8 km
1000 to 3000 ft
1500m to 5 km
500 to 1000 ft
800 to 1500m
200 to 500 ft
< 800m
< 200 ft
Symbols :   Thunderstorms  Fog  Heavy snow  Heavy precipitations  Wind > 20 kt
SIGMETs :     Misc.  Thunderstorms  Icing  Turbulence  Mountain Waves  Volcanic Ashes






- Airport Elevation : 39 ft
- IATA code : SUF


LICA - Lamezia Terme

CURRENT METAR :
  • 282320Z AUTO 09023KT 5000 -RA OVC022/// 15/13 Q1008

EXPIRED METARs :
  • 282250Z AUTO 08019KT 9999 -RA OVC022/// 16/13 Q1008
  • 282220Z AUTO 08020KT 9999 -RA OVC026/// 16/13 Q1008
  • 282150Z AUTO 08022G34KT 9999 -RA OVC023/// 16/13 Q1009
  • 282120Z AUTO 09025G38KT 7000 -RA FEW021/// OVC025/// 16/13 Q1008
  • 282050Z AUTO 09021G32KT 9999 -RA BKN026/// OVC062/// 16/12 Q1009
  • 282020Z AUTO 09022G32KT 9999 -RA OVC052/// 16/12 Q1009
  • 281950Z AUTO 09018G30KT 050V120 9999 -RA OVC050/// 16/12 Q1008
  • 281920Z AUTO 08021G32KT 9999 -RA FEW026/// OVC048/// 16/12 Q1008
  • 281850Z AUTO 07019G32KT 040V100 9999 -RA OVC022/// 16/13 Q1008
  • 281820Z AUTO 07019KT 9999 -RA OVC022/// 16/12 Q1008

TAF TAF LICA
Valid from the 28 at 18:00 until the 29 at 18:00 UTC


281700Z 2818/2918 09020G30KT 9999 BKN025
TEMPO 2818/2906 4000 TSRA
BECMG 2902/2904 08014KT



MET'MAP, your aeronautical weather chart ! - Copyright ORBIFLY December 2007 - Disclaimer

ORBIFLY MET'MAP TEAM :

Programming & Development : Alexandra Zaïnal
Original concept : Baudouin d'Aumeries
Technical & hardware support : Manuel Goepfert
Assistance : Marc-Olivier Méhu




SOURCES & CREDITS :

   NOAA